Time;durP1;ratioP1;P1;durP2;ratioP2;P2;SDS_P1;SDS_P2;PMS_P1;PMS_P2;Temp;Humidity;BMP_temperature;BMP_pressure;BME280_temperature;BME280_humidity;BME280_pressure;Samples;Min_cycle;Max_cycle;Signal;HPM_P1;HPM_P2
2024/03/24 00:01:09;;;;;;;4.30;2.60;;;;;;;5.95;68.51;97937.87;105993;1256;97968;-81
2024/03/24 00:03:50;;;;;;;5.30;3.00;;;;;;;5.93;68.41;97947.30;105701;1265;98097;-82
2024/03/24 00:06:17;;;;;;;;;;;;;;;5.91;68.40;97957.14;105547;1264;98055;-82
2024/03/24 00:08:43;;;;;;;3.80;2.90;;;;;;;5.84;68.56;97958.52;105866;1255;98047;-82
2024/03/24 00:11:10;;;;;;;4.90;2.70;;;;;;;5.80;68.48;97952.29;105822;1267;97993;-83
2024/03/24 00:13:37;;;;;;;4.50;2.70;;;;;;;5.77;68.51;97946.84;105748;1256;98591;-80
2024/03/24 00:16:03;;;;;;;;;;;;;;;5.75;68.53;97965.14;105856;1256;98052;-83
2024/03/24 00:18:30;;;;;;;5.10;2.70;;;;;;;5.68;68.53;97963.86;105798;1264;97956;-82
2024/03/24 00:20:56;;;;;;;;;;;;;;;5.66;68.53;97960.65;105878;1253;97997;-82
2024/03/24 00:23:22;;;;;;;4.30;2.40;;;;;;;5.61;68.56;97961.89;105923;1253;97970;-83
2024/03/24 00:25:49;;;;;;;;;;;;;;;5.57;68.56;97947.42;105546;1257;99513;-82
2024/03/24 00:28:15;;;;;;;4.70;2.70;;;;;;;5.51;68.70;97944.44;106050;1259;98539;-82
2024/03/24 00:30:41;;;;;;;;;;;;;;;5.50;68.57;97950.67;105886;1264;97998;-82
2024/03/24 00:33:08;;;;;;;7.40;4.80;;;;;;;5.47;68.86;97955.32;106158;1252;98042;-82
2024/03/24 00:35:34;;;;;;;;;;;;;;;5.47;68.78;97966.89;106235;1256;98551;-82
2024/03/24 00:38:01;;;;;;;7.20;3.50;;;;;;;5.43;68.57;97979.14;105588;1256;97977;-82
2024/03/24 00:40:27;;;;;;;8.40;4.40;;;;;;;5.43;68.80;97982.30;106016;1264;99399;-81
2024/03/24 00:42:55;;;;;;;5.20;3.20;;;;;;;5.44;68.89;97984.17;106017;1254;97958;-81
2024/03/24 00:45:22;;;;;;;5.90;3.10;;;;;;;5.46;68.80;97980.70;106514;1253;110703;-81
2024/03/24 00:47:51;;;;;;;8.20;4.10;;;;;;;5.45;68.76;97978.45;105784;1256;97950;-81
2024/03/24 00:50:18;;;;;;;5.70;3.20;;;;;;;5.42;68.86;97971.33;106268;1254;106742;-81
2024/03/24 00:52:44;;;;;;;5.50;2.40;;;;;;;5.38;68.94;97975.77;106194;1253;98043;-80
2024/03/24 00:55:11;;;;;;;;;;;;;;;5.35;68.84;97989.36;106121;1251;97928;-82
2024/03/24 00:57:37;;;;;;;4.40;2.80;;;;;;;5.30;68.84;97987.62;105703;1257;98041;-82
2024/03/24 01:00:04;;;;;;;;;;;;;;;5.28;69.01;97993.55;105622;1260;97951;-82
2024/03/24 01:02:30;;;;;;;4.50;2.50;;;;;;;5.25;68.90;97993.55;106640;1254;97901;-82
2024/03/24 01:04:58;;;;;;;;;;;;;;;5.24;68.88;97985.58;105521;1255;98029;-81
2024/03/24 01:07:24;;;;;;;6.60;3.40;;;;;;;5.19;68.99;97986.54;105957;1259;98044;-82
2024/03/24 01:09:54;;;;;;;;;;;;;;;5.17;69.07;97994.59;105522;1256;97922;-78
2024/03/24 01:12:23;;;;;;;4.70;2.70;;;;;;;5.15;69.07;98000.02;105935;1254;107376;-81
2024/03/24 01:14:50;;;;;;;5.90;2.40;;;;;;;5.11;68.84;98007.86;105811;1254;97950;-82
2024/03/24 01:17:17;;;;;;;4.40;2.50;;;;;;;4.98;68.91;97999.23;105990;1253;97965;-81
2024/03/24 01:19:43;;;;;;;;;;;;;;;4.87;69.00;97996.23;106754;1252;97786;-81
2024/03/24 01:22:09;;;;;;;5.00;3.10;;;;;;;4.74;69.01;97996.23;106365;1257;99384;-82
2024/03/24 01:24:36;;;;;;;;;;;;;;;4.61;68.99;97995.66;105977;1256;98020;-82
2024/03/24 01:27:03;;;;;;;5.00;2.50;;;;;;;4.49;69.02;97993.09;105732;1253;97945;-80
2024/03/24 01:29:29;;;;;;;4.10;2.20;;;;;;;4.41;69.30;97991.86;105810;1266;99292;-82
2024/03/24 01:31:56;;;;;;;3.70;2.50;;;;;;;4.35;69.15;97980.82;106192;1256;98019;-81
2024/03/24 01:34:24;;;;;;;;;;;;;;;4.26;69.36;97966.46;105892;1257;98014;-81
2024/03/24 01:36:50;;;;;;;4.30;2.90;;;;;;;4.20;69.33;97958.64;106711;1256;98664;-80
2024/03/24 01:39:17;;;;;;;;;;;;;;;4.17;69.46;97959.70;106483;1253;97952;-81
2024/03/24 01:41:43;;;;;;;5.10;3.10;;;;;;;4.16;69.55;97950.10;105486;1257;98295;-81
2024/03/24 01:44:10;;;;;;;;;;;;;;;4.19;69.56;97939.23;105769;1258;98153;-81
2024/03/24 01:46:36;;;;;;;5.10;3.30;;;;;;;4.21;69.65;97928.05;105671;1253;97957;-78
2024/03/24 01:49:03;;;;;;;5.20;3.80;;;;;;;4.22;69.69;97914.79;105773;1265;98879;-82
2024/03/24 01:51:33;;;;;;;5.40;4.20;;;;;;;4.23;69.67;97900.73;105847;1256;97970;-83
2024/03/24 01:54:00;;;;;;;5.90;4.00;;;;;;;4.26;69.82;97891.03;106404;1258;106270;-82
2024/03/24 01:56:27;;;;;;;5.70;3.90;;;;;;;4.30;69.97;97882.48;106692;1251;98165;-82
2024/03/24 01:58:54;;;;;;;5.30;3.70;;;;;;;4.35;69.97;97874.85;105760;1257;97971;-82
2024/03/24 02:01:22;;;;;;;6.70;3.90;;;;;;;4.35;69.89;97873.58;106202;1256;97952;-80
2024/03/24 02:03:48;;;;;;;6.20;3.60;;;;;;;4.38;69.85;97863.58;105825;1256;97965;-81
2024/03/24 02:06:15;;;;;;;;;;;;;;;4.40;69.93;97850.45;106036;1256;99282;-81
2024/03/24 02:08:41;;;;;;;5.20;3.30;;;;;;;4.41;70.01;97851.80;105709;1256;97950;-81
2024/03/24 02:11:08;;;;;;;;;;;;;;;4.44;69.95;97848.59;105905;1264;110923;-82
2024/03/24 02:13:34;;;;;;;6.30;3.50;;;;;;;4.46;70.15;97843.34;107060;1255;99291;-81
2024/03/24 02:16:01;;;;;;;8.00;4.10;;;;;;;4.51;70.10;97846.04;106309;1254;97956;-82
2024/03/24 02:18:27;;;;;;;;;;;;;;;4.53;70.13;97854.67;105863;1265;97951;-82
2024/03/24 02:20:54;;;;;;;4.60;2.90;;;;;;;4.55;70.22;97860.36;106420;1256;97956;-82
2024/03/24 02:23:20;;;;;;;7.80;3.40;;;;;;;4.59;69.99;97867.09;105691;1264;97960;-80
2024/03/24 02:25:46;;;;;;;;;;;;;;;4.62;70.27;97864.60;105886;1256;97962;-82
2024/03/24 02:28:13;;;;;;;5.30;3.10;;;;;;;4.64;70.35;97869.77;105809;1256;97923;-82
2024/03/24 02:30:39;;;;;;;4.90;3.00;;;;;;;4.65;70.23;97887.74;105845;1256;98054;-83
2024/03/24 02:33:06;;;;;;;6.20;4.00;;;;;;;4.65;70.09;97899.69;106787;1251;97859;-83
2024/03/24 02:35:33;;;;;;;;;;;;;;;4.64;70.29;97912.92;105907;1257;99308;-82
2024/03/24 02:37:59;;;;;;;4.60;2.80;;;;;;;4.65;70.37;97927.42;106731;1254;97926;-83
2024/03/24 02:40:26;;;;;;;4.30;3.00;;;;;;;4.67;70.20;97932.74;105896;1263;97959;-82
2024/03/24 02:42:52;;;;;;;;;;;;;;;4.69;70.36;97932.25;105937;1257;97971;-81
2024/03/24 02:45:18;;;;;;;5.00;3.10;;;;;;;4.69;70.38;97926.63;106008;1256;107239;-82
2024/03/24 02:47:45;;;;;;;;;;;;;;;4.69;70.08;97928.58;105575;1257;99289;-82
2024/03/24 02:50:11;;;;;;;5.30;3.30;;;;;;;4.68;70.30;97930.23;105646;1264;98543;-83
2024/03/24 02:52:37;;;;;;;;;;;;;;;4.67;70.13;97931.03;105729;1267;97965;-82
2024/03/24 02:55:04;;;;;;;6.40;3.60;;;;;;;4.66;70.43;97937.91;105914;1256;107180;-83
2024/03/24 02:57:31;;;;;;;6.00;3.40;;;;;;;4.69;70.55;97937.54;106468;1251;98047;-83
2024/03/24 02:59:57;;;;;;;6.70;4.00;;;;;;;4.72;70.32;97942.29;105565;1267;98915;-82
2024/03/24 03:02:24;;;;;;;6.10;3.90;;;;;;;4.73;70.25;97939.40;105944;1254;98568;-82
2024/03/24 03:04:51;;;;;;;8.60;4.80;;;;;;;4.73;70.54;97939.92;105861;1265;98423;-81
2024/03/24 03:07:17;;;;;;;;;;;;;;;4.73;70.32;97952.73;106012;1263;98548;-81
2024/03/24 03:09:44;;;;;;;7.50;5.00;;;;;;;4.71;70.43;97952.88;105655;1263;98397;-82
2024/03/24 03:12:10;;;;;;;;;;;;;;;4.72;70.49;97956.65;105636;1266;97976;-81
2024/03/24 03:14:36;;;;;;;7.50;5.20;;;;;;;4.71;70.47;97952.86;106646;1255;97951;-81
2024/03/24 03:17:03;;;;;;;9.50;6.40;;;;;;;4.71;70.63;97948.43;106062;1251;98043;-82
2024/03/24 03:19:30;;;;;;;11.00;7.00;;;;;;;4.73;70.57;97938.34;105845;1257;97977;-82
2024/03/24 03:21:56;;;;;;;;;;;;;;;4.73;70.38;97934.96;105848;1257;97971;-81
2024/03/24 03:24:22;;;;;;;11.60;7.20;;;;;;;4.69;70.50;97931.92;106304;1251;97983;-83
2024/03/24 03:26:49;;;;;;;;;;;;;;;4.70;70.50;97933.97;106012;1254;98422;-82
2024/03/24 03:29:15;;;;;;;11.00;5.90;;;;;;;4.67;70.62;97929.27;106060;1251;97963;-81
2024/03/24 03:31:41;;;;;;;12.30;7.50;;;;;;;4.67;70.55;97928.59;106051;1254;98044;-82
2024/03/24 03:34:08;;;;;;;;;;;;;;;4.66;70.54;97926.31;106567;1256;97895;-82
2024/03/24 03:36:34;;;;;;;10.30;6.20;;;;;;;4.65;70.59;97922.02;106675;1257;97855;-83
2024/03/24 03:39:01;;;;;;;;;;;;;;;4.66;70.52;97918.45;106277;1257;97968;-82
2024/03/24 03:41:27;;;;;;;9.20;5.90;;;;;;;4.63;70.65;97909.16;106225;1251;97973;-81
2024/03/24 03:43:53;;;;;;;;;;;;;;;4.63;70.63;97908.98;105879;1251;97997;-82
2024/03/24 03:46:20;;;;;;;10.40;6.30;;;;;;;4.59;70.61;97906.59;106016;1257;97885;-80
2024/03/24 03:48:48;;;;;;;13.40;6.30;;;;;;;4.55;70.79;97906.83;105606;1257;98080;-82
2024/03/24 03:51:19;;;;;;;10.70;5.70;;;;;;;4.53;70.66;97902.80;105766;1256;111470;-83
2024/03/24 03:53:48;;;;;;;11.30;6.70;;;;;;;4.47;70.72;97900.40;106084;1254;98046;-81
2024/03/24 03:56:14;;;;;;;11.90;5.40;;;;;;;4.44;70.86;97892.30;106637;1251;106227;-80
2024/03/24 03:58:41;;;;;;;8.50;5.40;;;;;;;4.43;70.88;97895.35;106084;1251;98000;-82
2024/03/24 04:01:07;;;;;;;;;;;;;;;4.42;70.80;97912.64;105847;1256;97907;-83
2024/03/24 04:03:35;;;;;;;8.80;4.80;;;;;;;4.37;70.98;97912.61;105571;1265;98902;-81
2024/03/24 04:06:05;;;;;;;8.80;5.50;;;;;;;4.36;70.77;97923.36;106021;1254;97966;-81
2024/03/24 04:08:31;;;;;;;10.70;5.30;;;;;;;4.35;71.09;97925.21;105804;1267;106227;-83
2024/03/24 04:10:58;;;;;;;10.20;5.40;;;;;;;4.36;70.85;97917.44;105773;1255;97966;-81
2024/03/24 04:13:24;;;;;;;8.60;5.00;;;;;;;4.36;70.80;97900.40;106435;1255;97957;-84
2024/03/24 04:15:51;;;;;;;9.00;5.50;;;;;;;4.33;70.93;97891.42;105855;1258;97976;-81
2024/03/24 04:18:17;;;;;;;;;;;;;;;4.31;70.99;97883.30;105922;1256;105611;-83
2024/03/24 04:20:43;;;;;;;10.50;5.60;;;;;;;4.29;71.14;97896.44;105568;1256;98235;-81
2024/03/24 04:23:10;;;;;;;;;;;;;;;4.30;71.35;97907.08;105996;1257;97959;-82
2024/03/24 04:25:36;;;;;;;10.60;5.80;;;;;;;4.30;71.21;97911.95;105854;1257;98461;-82
2024/03/24 04:28:03;;;;;;;;;;;;;;;4.31;71.16;97917.86;105791;1251;105402;-81
2024/03/24 04:30:32;;;;;;;10.00;5.70;;;;;;;4.29;71.18;97917.31;106707;1256;97951;-81
2024/03/24 04:32:59;;;;;;;7.30;4.60;;;;;;;4.28;71.29;97921.59;105836;1251;99167;-81
2024/03/24 04:35:26;;;;;;;9.00;5.10;;;;;;;4.28;71.39;97928.80;105733;1266;98011;-82
2024/03/24 04:37:52;;;;;;;;;;;;;;;4.28;71.06;97937.38;105997;1251;99226;-81
2024/03/24 04:40:19;;;;;;;10.20;5.70;;;;;;;4.27;71.28;97939.73;106637;1256;172316;-82
2024/03/24 04:42:45;;;;;;;;;;;;;;;4.26;71.54;97939.09;106308;1255;98518;-81
2024/03/24 04:45:12;;;;;;;7.60;4.50;;;;;;;4.23;71.34;97938.92;106275;1251;111318;-80
2024/03/24 04:47:38;;;;;;;9.10;5.50;;;;;;;4.19;71.64;97941.64;106101;1265;97995;-82
2024/03/24 04:50:05;;;;;;;;;;;;;;;4.16;71.42;97933.27;105929;1254;97955;-81
2024/03/24 04:52:32;;;;;;;9.40;4.30;;;;;;;4.14;71.59;97935.51;105888;1255;97950;-80
2024/03/24 04:54:58;;;;;;;10.30;5.30;;;;;;;4.13;71.63;97930.64;106945;1251;97944;-81
2024/03/24 04:57:27;;;;;;;8.30;5.30;;;;;;;4.12;71.64;97930.02;106380;1253;98179;-82
2024/03/24 04:59:53;;;;;;;;;;;;;;;4.11;71.63;97922.69;106354;1251;97946;-81
2024/03/24 05:02:20;;;;;;;7.90;4.50;;;;;;;4.09;71.86;97920.18;105997;1251;97951;-82
2024/03/24 05:04:48;;;;;;;;;;;;;;;4.07;71.45;97924.02;105784;1261;97992;-82
2024/03/24 05:07:15;;;;;;;6.20;3.80;;;;;;;4.01;71.52;97928.73;105779;1257;97980;-81
2024/03/24 05:09:42;;;;;;;8.70;4.90;;;;;;;3.99;71.70;97934.52;105520;1267;97997;-82
2024/03/24 05:12:09;;;;;;;10.10;4.90;;;;;;;3.95;71.49;97938.46;105920;1256;97998;-83
2024/03/24 05:14:35;;;;;;;8.60;4.30;;;;;;;3.91;71.72;97940.27;106245;1251;97952;-80
2024/03/24 05:17:02;;;;;;;9.50;4.00;;;;;;;3.88;71.68;97934.52;106887;1257;97875;-81
2024/03/24 05:19:29;;;;;;;7.20;3.70;;;;;;;3.83;71.77;97931.48;107081;1251;97990;-81
2024/03/24 05:21:55;;;;;;;;;;;;;;;3.81;71.70;97934.93;105918;1257;97954;-81
2024/03/24 05:24:22;;;;;;;7.40;4.10;;;;;;;3.78;71.81;97938.63;105956;1256;99284;-79
2024/03/24 05:26:48;;;;;;;;;;;;;;;3.74;71.95;97936.42;105881;1254;97952;-82
2024/03/24 05:29:14;;;;;;;8.20;3.80;;;;;;;3.71;72.08;97933.64;105805;1251;98711;-82
2024/03/24 05:31:49;;;;;;;6.70;4.10;;;;;;;3.70;71.91;97948.56;105526;1251;99274;-82
2024/03/24 05:34:15;;;;;;;7.90;4.50;;;;;;;3.69;72.11;97960.02;105800;1256;97891;-81
2024/03/24 05:36:42;;;;;;;;;;;;;;;3.66;71.91;97962.73;106135;1251;98069;-82
2024/03/24 05:39:09;;;;;;;5.80;3.50;;;;;;;3.62;72.16;97958.73;106446;1251;97981;-82
2024/03/24 05:41:36;;;;;;;6.80;3.50;;;;;;;3.60;71.86;97952.55;105855;1255;97954;-80
2024/03/24 05:44:02;;;;;;;6.20;4.10;;;;;;;3.58;71.97;97956.54;106230;1251;97958;-81
2024/03/24 05:46:28;;;;;;;9.90;4.00;;;;;;;3.57;72.12;97957.64;105773;1256;111242;-81
2024/03/24 05:48:55;;;;;;;6.50;4.00;;;;;;;3.57;71.97;97962.35;105781;1254;97976;-82
2024/03/24 05:51:21;;;;;;;7.50;3.50;;;;;;;3.57;72.07;97965.38;105704;1251;97978;-79
2024/03/24 05:53:48;;;;;;;6.70;3.70;;;;;;;3.58;72.03;97968.10;105847;1257;98006;-81
2024/03/24 05:56:15;;;;;;;6.70;3.60;;;;;;;3.63;72.34;97981.12;106773;1251;110851;-81
2024/03/24 05:58:41;;;;;;;;;;;;;;;3.66;72.22;97993.40;105849;1273;97992;-82
2024/03/24 06:01:08;;;;;;;8.50;4.20;;;;;;;3.67;72.20;98000.30;105602;1254;98533;-83
2024/03/24 06:03:34;;;;;;;;;;;;;;;3.69;72.51;97990.21;105899;1251;97894;-82
2024/03/24 06:06:01;;;;;;;6.50;3.50;;;;;;;3.70;72.34;97988.77;106920;1251;111066;-83
2024/03/24 06:08:28;;;;;;;6.60;3.20;;;;;;;3.72;72.46;97992.67;106628;1251;97939;-82
2024/03/24 06:10:54;;;;;;;7.30;3.70;;;;;;;3.74;72.67;97989.73;106057;1254;97964;-81
2024/03/24 06:13:21;;;;;;;9.30;3.60;;;;;;;3.79;72.59;97991.00;105983;1256;97758;-83
2024/03/24 06:15:47;;;;;;;6.80;3.40;;;;;;;3.82;72.56;97992.26;106746;1252;97999;-82
2024/03/24 06:18:14;;;;;;;;;;;;;;;3.80;72.83;97989.39;107330;1256;98915;-83
2024/03/24 06:20:40;;;;;;;6.40;2.90;;;;;;;3.81;72.93;97994.95;106931;1251;97930;-82
2024/03/24 06:23:07;;;;;;;;;;;;;;;3.86;72.84;97995.47;107034;1253;97888;-82
2024/03/24 06:25:34;;;;;;;6.00;2.70;;;;;;;3.90;72.81;97996.27;107089;1257;98002;-82
2024/03/24 06:28:01;;;;;;;6.40;3.30;;;;;;;3.96;72.99;97993.80;106893;1257;99174;-81
2024/03/24 06:30:31;;;;;;;6.00;2.80;;;;;;;4.06;72.77;97999.20;106901;1251;107473;-80
2024/03/24 06:32:57;;;;;;;5.50;3.00;;;;;;;4.12;73.17;97997.36;106856;1255;97961;-81
2024/03/24 06:35:23;;;;;;;;;;;;;;;4.17;72.89;97993.04;106901;1251;97943;-80
2024/03/24 06:37:50;;;;;;;6.00;2.90;;;;;;;4.22;73.16;97992.73;107114;1256;97930;-81
2024/03/24 06:40:17;;;;;;;7.40;3.60;;;;;;;4.30;72.89;97992.75;106143;1256;97975;-82
2024/03/24 06:42:59;;;;;;;;;;;;;;;4.36;73.07;97992.54;106138;1256;97964;-81
2024/03/24 06:45:35;;;;;;;8.90;3.40;;;;;;;4.43;73.13;97994.55;106451;1251;99317;-82
2024/03/24 06:48:03;;;;;;;8.40;3.80;;;;;;;4.51;73.07;97994.73;105774;1266;109243;-79
2024/03/24 06:50:30;;;;;;;8.20;2.90;;;;;;;4.56;72.82;97992.50;105954;1256;98304;-81
2024/03/24 06:52:58;;;;;;;7.00;3.90;;;;;;;4.59;72.96;97996.11;106095;1251;107613;-82
2024/03/24 06:55:26;;;;;;;5.60;3.80;;;;;;;4.60;72.83;97998.89;106390;1251;97953;-82
2024/03/24 06:57:53;;;;;;;8.00;3.70;;;;;;;4.63;72.98;97999.20;106536;1254;97923;-81
2024/03/24 07:00:20;;;;;;;9.80;4.70;;;;;;;4.70;73.00;98004.05;106197;1253;98015;-82
2024/03/24 07:02:50;;;;;;;8.40;3.90;;;;;;;4.74;72.95;98006.73;105272;1255;97952;-80
2024/03/24 07:05:17;;;;;;;12.10;5.10;;;;;;;4.81;72.93;98007.71;105536;1258;107678;-76
2024/03/24 07:07:44;;;;;;;;;;;;;;;4.90;73.04;98011.68;105488;1257;98018;-76
2024/03/24 07:10:11;;;;;;;9.60;3.90;;;;;;;4.96;72.98;98013.94;105382;1257;97974;-76
2024/03/24 07:12:37;;;;;;;6.20;4.10;;;;;;;5.04;72.99;98017.64;105483;1251;98048;-76
2024/03/24 07:15:05;;;;;;;6.70;4.50;;;;;;;5.09;72.89;98016.20;105286;1256;98094;-78
2024/03/24 07:17:31;;;;;;;10.50;5.10;;;;;;;5.13;72.91;98008.41;105295;1251;98460;-77
2024/03/24 07:19:58;;;;;;;10.70;6.50;;;;;;;5.17;72.77;98013.06;105470;1256;97920;-74
2024/03/24 07:22:24;;;;;;;16.00;8.10;;;;;;;5.20;72.91;98010.01;105655;1252;98035;-75
2024/03/24 07:24:51;;;;;;;;;;;;;;;5.26;72.79;98010.02;105498;1254;97978;-76
2024/03/24 07:27:18;;;;;;;6.50;4.50;;;;;;;5.28;72.53;98007.92;105614;1251;97999;-76
2024/03/24 07:29:44;;;;;;;12.30;5.30;;;;;;;5.32;72.70;98013.14;105319;1253;99121;-77
2024/03/24 07:32:11;;;;;;;10.10;5.10;;;;;;;5.36;72.74;98010.52;105210;1257;111109;-76
2024/03/24 07:34:40;;;;;;;10.70;4.70;;;;;;;5.41;72.64;98010.05;105363;1254;98031;-75
2024/03/24 07:37:06;;;;;;;13.50;5.20;;;;;;;5.50;72.74;98005.92;105287;1252;107652;-75
2024/03/24 07:39:35;;;;;;;11.40;5.30;;;;;;;5.62;72.85;98001.08;105379;1257;98039;-77
2024/03/24 07:42:02;;;;;;;9.40;5.30;;;;;;;5.72;72.87;97996.98;105401;1256;98055;-77
2024/03/24 07:44:29;;;;;;;10.10;6.30;;;;;;;5.83;72.68;97992.73;105530;1257;98946;-76
2024/03/24 07:46:56;;;;;;;10.80;5.60;;;;;;;5.90;72.65;97989.95;105264;1257;98032;-76
2024/03/24 07:49:23;;;;;;;13.80;7.30;;;;;;;5.92;72.52;97984.70;105712;1257;99324;-76
2024/03/24 07:52:18;;;;;;;;;;;;;;;;;;;;;
2024/03/24 07:55:57;;;;;;;;;;;;;;;;;;;;;
2024/03/24 07:59:10;;;;;;;9.30;5.30;;;;;;;5.95;72.41;97988.36;105469;1254;98022;-79
2024/03/24 08:01:36;;;;;;;10.40;7.00;;;;;;;5.98;72.33;97990.98;105640;1252;97935;-76
2024/03/24 08:04:03;;;;;;;11.80;6.10;;;;;;;6.00;72.34;97988.73;105496;1255;98054;-76
2024/03/24 08:06:29;;;;;;;8.90;5.00;;;;;;;6.06;72.50;97985.33;105165;1257;97992;-76
2024/03/24 08:08:56;;;;;;;12.20;7.00;;;;;;;6.15;72.37;97987.55;105517;1251;99602;-76
2024/03/24 08:11:23;;;;;;;13.60;7.10;;;;;;;6.21;72.23;97986.75;105196;1259;107360;-77
2024/03/24 08:13:49;;;;;;;10.10;5.80;;;;;;;6.28;72.13;97984.33;105570;1254;98007;-76
2024/03/24 08:16:16;;;;;;;;;;;;;;;6.37;72.24;97980.66;105199;1251;97976;-76
2024/03/24 08:18:42;;;;;;;12.20;6.10;;;;;;;6.47;72.47;97980.27;105432;1257;97983;-74
2024/03/24 08:21:09;;;;;;;12.10;6.50;;;;;;;6.56;72.39;97979.44;105240;1257;107227;-74
2024/03/24 08:23:38;;;;;;;10.00;5.90;;;;;;;6.65;72.38;97983.77;105502;1256;97951;-76
2024/03/24 08:26:05;;;;;;;9.00;5.30;;;;;;;6.70;72.05;97983.36;105525;1257;98191;-76
2024/03/24 08:28:32;;;;;;;9.10;5.80;;;;;;;6.74;72.03;97980.76;105470;1251;98062;-75
2024/03/24 08:31:02;;;;;;;6.90;4.10;;;;;;;6.79;72.05;97981.52;105733;1251;97863;-75
2024/03/24 08:33:29;;;;;;;8.30;5.00;;;;;;;6.82;71.91;97981.93;105562;1266;98819;-76
2024/03/24 08:35:55;;;;;;;7.80;4.10;;;;;;;6.90;72.25;97986.86;105716;1251;97980;-76
2024/03/24 08:38:22;;;;;;;;;;;;;;;6.99;72.04;97988.98;105409;1270;98020;-75
2024/03/24 08:40:48;;;;;;;6.90;4.40;;;;;;;7.05;71.70;97993.52;105656;1253;98428;-75
2024/03/24 08:43:15;;;;;;;6.80;3.70;;;;;;;7.06;71.81;97995.66;105480;1259;107118;-76
2024/03/24 08:45:42;;;;;;;5.60;3.70;;;;;;;7.07;71.43;97995.95;105360;1253;98177;-77
2024/03/24 08:48:08;;;;;;;10.10;4.70;;;;;;;7.04;71.35;97996.52;108748;1251;95747;-76
2024/03/24 08:50:35;;;;;;;8.00;4.00;;;;;;;7.09;71.42;97996.67;108708;1252;95659;-78
2024/03/24 08:53:02;;;;;;;5.70;3.90;;;;;;;7.17;71.35;97995.54;106644;1256;97958;-77
2024/03/24 08:55:28;;;;;;;7.50;3.70;;;;;;;7.30;71.33;97993.02;108556;1251;95665;-77
2024/03/24 08:57:57;;;;;;;6.60;4.30;;;;;;;7.41;71.15;97990.56;108671;1253;95793;-78
2024/03/24 09:00:24;;;;;;;6.40;3.60;;;;;;;7.55;71.18;97989.34;108040;1255;99348;-77
2024/03/24 09:02:51;;;;;;;6.50;4.30;;;;;;;7.63;70.93;97988.59;105498;1260;98058;-76
2024/03/24 09:05:18;;;;;;;6.40;3.90;;;;;;;7.61;70.84;97987.96;105063;1253;98889;-78
2024/03/24 09:07:44;;;;;;;7.10;3.70;;;;;;;7.61;70.97;97986.95;105030;1261;99264;-76
2024/03/24 09:10:11;;;;;;;6.80;4.10;;;;;;;7.59;70.69;97990.23;105531;1256;97949;-77
2024/03/24 09:12:38;;;;;;;9.30;4.30;;;;;;;7.62;70.51;97990.23;105045;1251;97984;-78
2024/03/24 09:15:05;;;;;;;7.00;4.60;;;;;;;7.66;70.46;97995.40;105450;1256;98039;-77
2024/03/24 09:17:31;;;;;;;6.10;3.70;;;;;;;7.70;70.41;97994.20;105227;1254;98157;-76
2024/03/24 09:19:58;;;;;;;12.50;7.10;;;;;;;7.74;70.54;97997.87;105632;1252;98418;-76
2024/03/24 09:22:24;;;;;;;8.60;6.00;;;;;;;7.76;70.02;97998.98;105366;1257;99503;-76
2024/03/24 09:24:51;;;;;;;10.50;7.00;;;;;;;7.73;69.92;97995.90;105241;1251;105904;-76
2024/03/24 09:27:17;;;;;;;6.50;4.00;;;;;;;7.67;69.56;97999.69;105477;1256;98005;-77
2024/03/24 09:29:45;;;;;;;7.40;5.10;;;;;;;7.61;69.62;97996.29;105391;1254;98038;-76
2024/03/24 09:32:11;;;;;;;11.70;6.80;;;;;;;7.60;69.81;97996.38;105315;1253;98005;-76
2024/03/24 09:34:38;;;;;;;8.60;5.00;;;;;;;7.64;69.58;97991.45;105313;1257;98146;-77
2024/03/24 09:37:05;;;;;;;7.70;4.20;;;;;;;7.66;69.61;97990.98;105747;1257;98175;-77
2024/03/24 09:39:32;;;;;;;7.20;4.30;;;;;;;7.64;69.05;97990.02;105460;1251;97952;-76
2024/03/24 09:42:02;;;;;;;7.90;4.80;;;;;;;7.58;69.22;97981.31;105837;1255;98135;-77
2024/03/24 09:44:30;;;;;;;9.10;4.80;;;;;;;7.60;69.18;97977.96;105756;1254;98117;-77
2024/03/24 09:46:59;;;;;;;7.80;4.90;;;;;;;7.64;69.15;97975.95;105341;1253;107395;-78
2024/03/24 09:49:31;;;;;;;6.80;4.30;;;;;;;7.75;69.51;97970.48;105511;1256;99388;-76
2024/03/24 09:52:00;;;;;;;6.40;4.40;;;;;;;7.93;69.28;97965.89;105311;1252;97990;-77
2024/03/24 10:46:55;;;;;;;6.40;3.40;;;;;;;8.99;66.71;97887.02;102562;1285;638539;-76
2024/03/24 10:49:26;;;;;;;4.00;3.10;;;;;;;9.04;66.85;97882.73;104558;1267;95307;-76
2024/03/24 10:51:55;;;;;;;5.50;3.40;;;;;;;9.11;66.37;97881.61;105064;1261;95296;-75
2024/03/24 10:54:21;;;;;;;6.00;3.50;;;;;;;9.10;66.41;97878.63;105069;1262;108779;-77
2024/03/24 10:56:49;;;;;;;5.00;3.20;;;;;;;9.09;66.12;97878.54;105116;1259;95409;-76
2024/03/24 11:30:02;;;;;;;;;;;;;;;;;;;;;
2024/03/24 12:09:28;;;;;;;;;;;;;;;;;;;;;
2024/03/24 12:13:09;;;;;;;;;;;;;;;;;;;;;
